KDMN/DMN METAR and TAF weather

Enter ICAO airport designator
Station Type Date Time Source
KDMN METAR 2021/05/15 23:53 UTC NOAA

KDMN 152353Z AUTO 28015G26KT 10SM CLR 31/M03 A2985 RMK AO2 PK WND 26029/2320 SLP037 T03111033 10322 20272 56019


Station Type Date Time Source
KDMN Decoded METAR 2021/05/15 23:53 UTC NOAA

DEMING MUNICIPAL AIRPORT, NM, United States (KDMN) 32-16N 107-43W 1311M
May 15, 2021 - 07:53 PM EDT / 2021.05.15 2353 UTC
Wind: from the W (280 degrees) at 17 MPH (15 KT) gusting to 30 MPH (26 KT):0
Visibility: 10 mile(s):0
Sky conditions: clear
Temperature: 88.0 F (31.1 C)
Dew Point: 26.1 F (-3.3 C)
Relative Humidity: 10%
Pressure (altimeter): 29.85 in. Hg (1010 hPa)
Pressure tendency: 0.06 inches (1.9 hPa) lower than three hours ago
ob: KDMN 152353Z AUTO 28015G26KT 10SM CLR 31/M03 A2985 RMK AO2 PK WND 26029/2320 SLP037 T03111033 10322 20272 56019
cycle: 0

Station Type Date Time Source
KDMN TAF 2021/05/15 18:24 UTC NOAA

TAF KDMN 151721Z 1518/1618 24010KT P6SM FEW250
FM152100 24013G23KT P6SM SCT120
FM160200 26010KT P6SM SKC

Example: see airport list